sensor_id;sensor_type;location;lat;lon;timestamp;P1;durP1;ratioP1;P2;durP2;ratioP2
22705;SDS011;11520;51.198;4.468;2023-08-30T00:00:37;9.88;;;6.20;;
22705;SDS011;11520;51.198;4.468;2023-08-30T00:03:04;9.13;;;6.38;;
22705;SDS011;11520;51.198;4.468;2023-08-30T00:05:31;8.80;;;6.25;;
22705;SDS011;11520;51.198;4.468;2023-08-30T00:07:56;9.50;;;6.88;;
22705;SDS011;11520;51.198;4.468;2023-08-30T00:10:22;11.05;;;7.05;;
22705;SDS011;11520;51.198;4.468;2023-08-30T00:12:48;7.88;;;6.18;;
22705;SDS011;11520;51.198;4.468;2023-08-30T00:15:13;11.48;;;6.45;;
22705;SDS011;11520;51.198;4.468;2023-08-30T00:17:39;8.57;;;6.18;;
22705;SDS011;11520;51.198;4.468;2023-08-30T00:20:05;9.93;;;6.63;;
22705;SDS011;11520;51.198;4.468;2023-08-30T00:22:31;10.80;;;6.40;;
22705;SDS011;11520;51.198;4.468;2023-08-30T00:24:57;8.23;;;6.40;;
22705;SDS011;11520;51.198;4.468;2023-08-30T00:27:23;11.02;;;6.60;;
22705;SDS011;11520;51.198;4.468;2023-08-30T00:29:48;9.05;;;6.75;;
22705;SDS011;11520;51.198;4.468;2023-08-30T00:32:14;9.20;;;6.35;;
22705;SDS011;11520;51.198;4.468;2023-08-30T00:34:40;11.90;;;6.22;;
22705;SDS011;11520;51.198;4.468;2023-08-30T00:37:05;8.43;;;6.20;;
22705;SDS011;11520;51.198;4.468;2023-08-30T00:39:31;13.90;;;6.32;;
22705;SDS011;11520;51.198;4.468;2023-08-30T00:41:56;9.00;;;6.65;;
22705;SDS011;11520;51.198;4.468;2023-08-30T00:44:22;11.07;;;6.50;;
22705;SDS011;11520;51.198;4.468;2023-08-30T00:46:48;8.15;;;5.97;;
22705;SDS011;11520;51.198;4.468;2023-08-30T00:49:13;9.90;;;5.85;;
22705;SDS011;11520;51.198;4.468;2023-08-30T00:51:39;9.05;;;6.20;;
22705;SDS011;11520;51.198;4.468;2023-08-30T00:54:05;7.68;;;5.72;;
22705;SDS011;11520;51.198;4.468;2023-08-30T00:56:32;9.27;;;5.93;;
22705;SDS011;11520;51.198;4.468;2023-08-30T00:58:58;9.27;;;6.68;;
22705;SDS011;11520;51.198;4.468;2023-08-30T01:01:24;8.50;;;6.28;;
22705;SDS011;11520;51.198;4.468;2023-08-30T01:03:50;8.43;;;6.10;;
22705;SDS011;11520;51.198;4.468;2023-08-30T01:06:16;12.30;;;6.68;;
22705;SDS011;11520;51.198;4.468;2023-08-30T01:08:42;11.00;;;6.35;;
22705;SDS011;11520;51.198;4.468;2023-08-30T01:11:22;12.57;;;6.28;;
22705;SDS011;11520;51.198;4.468;2023-08-30T01:13:58;9.68;;;6.63;;
22705;SDS011;11520;51.198;4.468;2023-08-30T01:16:44;11.55;;;6.90;;
22705;SDS011;11520;51.198;4.468;2023-08-30T01:22:02;12.57;;;7.32;;
22705;SDS011;11520;51.198;4.468;2023-08-30T01:24:47;9.35;;;6.32;;
22705;SDS011;11520;51.198;4.468;2023-08-30T01:27:34;11.18;;;7.07;;
22705;SDS011;11520;51.198;4.468;2023-08-30T01:30:02;11.45;;;7.05;;
22705;SDS011;11520;51.198;4.468;2023-08-30T01:32:31;8.38;;;5.80;;
22705;SDS011;11520;51.198;4.468;2023-08-30T01:35:00;11.20;;;6.90;;
22705;SDS011;11520;51.198;4.468;2023-08-30T01:37:26;8.45;;;6.63;;
22705;SDS011;11520;51.198;4.468;2023-08-30T01:39:54;9.93;;;6.28;;
22705;SDS011;11520;51.198;4.468;2023-08-30T01:42:22;8.40;;;6.70;;
22705;SDS011;11520;51.198;4.468;2023-08-30T01:44:52;11.40;;;6.70;;
22705;SDS011;11520;51.198;4.468;2023-08-30T01:47:22;8.68;;;6.30;;
22705;SDS011;11520;51.198;4.468;2023-08-30T01:49:52;11.23;;;6.60;;
22705;SDS011;11520;51.198;4.468;2023-08-30T01:52:18;10.25;;;7.03;;
22705;SDS011;11520;51.198;4.468;2023-08-30T01:54:46;11.68;;;6.72;;
22705;SDS011;11520;51.198;4.468;2023-08-30T01:57:12;12.05;;;6.63;;
22705;SDS011;11520;51.198;4.468;2023-08-30T01:59:38;11.00;;;6.78;;
22705;SDS011;11520;51.198;4.468;2023-08-30T02:02:04;11.88;;;6.82;;
22705;SDS011;11520;51.198;4.468;2023-08-30T02:04:30;10.48;;;7.07;;
22705;SDS011;11520;51.198;4.468;2023-08-30T02:07:00;13.60;;;8.07;;
22705;SDS011;11520;51.198;4.468;2023-08-30T02:12:22;9.20;;;7.00;;
22705;SDS011;11520;51.198;4.468;2023-08-30T02:14:53;11.07;;;6.57;;
22705;SDS011;11520;51.198;4.468;2023-08-30T02:17:19;13.68;;;6.18;;
22705;SDS011;11520;51.198;4.468;2023-08-30T02:19:45;7.93;;;6.32;;
22705;SDS011;11520;51.198;4.468;2023-08-30T02:22:12;8.98;;;6.28;;
22705;SDS011;11520;51.198;4.468;2023-08-30T02:24:38;13.82;;;6.93;;
22705;SDS011;11520;51.198;4.468;2023-08-30T02:27:03;9.30;;;6.43;;
22705;SDS011;11520;51.198;4.468;2023-08-30T02:29:29;12.35;;;6.93;;
22705;SDS011;11520;51.198;4.468;2023-08-30T02:31:55;11.10;;;7.00;;
22705;SDS011;11520;51.198;4.468;2023-08-30T02:34:21;10.98;;;7.20;;
22705;SDS011;11520;51.198;4.468;2023-08-30T02:36:47;9.70;;;6.32;;
22705;SDS011;11520;51.198;4.468;2023-08-30T02:39:14;8.90;;;6.20;;
22705;SDS011;11520;51.198;4.468;2023-08-30T02:41:40;10.05;;;6.78;;
22705;SDS011;11520;51.198;4.468;2023-08-30T02:44:07;10.93;;;6.43;;
22705;SDS011;11520;51.198;4.468;2023-08-30T02:46:35;10.38;;;6.03;;
22705;SDS011;11520;51.198;4.468;2023-08-30T02:49:02;10.23;;;6.55;;
22705;SDS011;11520;51.198;4.468;2023-08-30T02:51:28;9.43;;;6.40;;
22705;SDS011;11520;51.198;4.468;2023-08-30T02:53:53;11.85;;;6.88;;
22705;SDS011;11520;51.198;4.468;2023-08-30T02:56:19;9.07;;;6.78;;
22705;SDS011;11520;51.198;4.468;2023-08-30T02:58:45;10.25;;;6.45;;
22705;SDS011;11520;51.198;4.468;2023-08-30T03:01:11;7.75;;;5.78;;
22705;SDS011;11520;51.198;4.468;2023-08-30T03:03:36;8.25;;;6.65;;
22705;SDS011;11520;51.198;4.468;2023-08-30T03:06:02;9.95;;;6.30;;
22705;SDS011;11520;51.198;4.468;2023-08-30T03:08:28;7.43;;;5.75;;
22705;SDS011;11520;51.198;4.468;2023-08-30T03:10:53;8.10;;;5.97;;
22705;SDS011;11520;51.198;4.468;2023-08-30T03:13:19;9.77;;;6.43;;
22705;SDS011;11520;51.198;4.468;2023-08-30T03:15:45;9.50;;;6.40;;
22705;SDS011;11520;51.198;4.468;2023-08-30T03:18:10;10.20;;;6.35;;
22705;SDS011;11520;51.198;4.468;2023-08-30T03:20:36;10.10;;;5.95;;
22705;SDS011;11520;51.198;4.468;2023-08-30T03:23:02;9.30;;;5.88;;
22705;SDS011;11520;51.198;4.468;2023-08-30T03:25:30;9.95;;;6.55;;
22705;SDS011;11520;51.198;4.468;2023-08-30T03:27:56;7.93;;;6.00;;
22705;SDS011;11520;51.198;4.468;2023-08-30T03:30:22;9.63;;;6.68;;
22705;SDS011;11520;51.198;4.468;2023-08-30T03:32:48;9.73;;;5.97;;
22705;SDS011;11520;51.198;4.468;2023-08-30T03:35:14;8.75;;;6.32;;
22705;SDS011;11520;51.198;4.468;2023-08-30T03:37:42;9.35;;;6.07;;
22705;SDS011;11520;51.198;4.468;2023-08-30T03:40:07;10.18;;;6.05;;
22705;SDS011;11520;51.198;4.468;2023-08-30T03:42:34;10.80;;;6.10;;
22705;SDS011;11520;51.198;4.468;2023-08-30T03:45:00;13.02;;;7.18;;
22705;SDS011;11520;51.198;4.468;2023-08-30T03:47:25;9.65;;;6.18;;
22705;SDS011;11520;51.198;4.468;2023-08-30T03:49:51;8.15;;;6.10;;
22705;SDS011;11520;51.198;4.468;2023-08-30T03:52:16;9.25;;;5.57;;
22705;SDS011;11520;51.198;4.468;2023-08-30T03:54:42;12.13;;;5.72;;
22705;SDS011;11520;51.198;4.468;2023-08-30T03:57:08;7.13;;;5.72;;
22705;SDS011;11520;51.198;4.468;2023-08-30T03:59:33;7.20;;;6.00;;
22705;SDS011;11520;51.198;4.468;2023-08-30T04:01:59;7.95;;;5.28;;
22705;SDS011;11520;51.198;4.468;2023-08-30T04:04:25;10.82;;;5.40;;
22705;SDS011;11520;51.198;4.468;2023-08-30T04:06:51;8.45;;;5.53;;
22705;SDS011;11520;51.198;4.468;2023-08-30T04:09:16;9.18;;;5.20;;
22705;SDS011;11520;51.198;4.468;2023-08-30T04:11:43;10.00;;;5.07;;
22705;SDS011;11520;51.198;4.468;2023-08-30T04:14:09;11.93;;;5.68;;
22705;SDS011;11520;51.198;4.468;2023-08-30T04:16:34;6.53;;;5.05;;
22705;SDS011;11520;51.198;4.468;2023-08-30T04:19:00;9.25;;;4.40;;
22705;SDS011;11520;51.198;4.468;2023-08-30T04:21:26;12.43;;;5.10;;
22705;SDS011;11520;51.198;4.468;2023-08-30T04:23:51;7.28;;;4.88;;
22705;SDS011;11520;51.198;4.468;2023-08-30T04:26:17;8.10;;;4.72;;
22705;SDS011;11520;51.198;4.468;2023-08-30T04:28:42;8.00;;;5.03;;
22705;SDS011;11520;51.198;4.468;2023-08-30T04:31:08;10.30;;;5.47;;
22705;SDS011;11520;51.198;4.468;2023-08-30T04:33:33;8.20;;;4.55;;
22705;SDS011;11520;51.198;4.468;2023-08-30T04:35:59;7.53;;;4.45;;
22705;SDS011;11520;51.198;4.468;2023-08-30T04:38:25;7.72;;;4.75;;
22705;SDS011;11520;51.198;4.468;2023-08-30T04:40:56;8.55;;;4.80;;
22705;SDS011;11520;51.198;4.468;2023-08-30T04:43:23;7.47;;;4.63;;
22705;SDS011;11520;51.198;4.468;2023-08-30T04:45:48;7.65;;;4.68;;
22705;SDS011;11520;51.198;4.468;2023-08-30T04:48:14;9.10;;;5.18;;
22705;SDS011;11520;51.198;4.468;2023-08-30T04:50:39;5.82;;;4.63;;
22705;SDS011;11520;51.198;4.468;2023-08-30T04:53:05;11.73;;;5.18;;
22705;SDS011;11520;51.198;4.468;2023-08-30T04:55:31;7.28;;;4.88;;
22705;SDS011;11520;51.198;4.468;2023-08-30T04:57:56;12.48;;;5.45;;
22705;SDS011;11520;51.198;4.468;2023-08-30T05:00:22;8.27;;;4.97;;
22705;SDS011;11520;51.198;4.468;2023-08-30T05:02:48;9.27;;;4.72;;
22705;SDS011;11520;51.198;4.468;2023-08-30T05:05:14;8.50;;;5.30;;
22705;SDS011;11520;51.198;4.468;2023-08-30T05:07:39;7.70;;;4.57;;
22705;SDS011;11520;51.198;4.468;2023-08-30T05:10:05;9.25;;;5.32;;
22705;SDS011;11520;51.198;4.468;2023-08-30T05:12:33;9.68;;;5.65;;
22705;SDS011;11520;51.198;4.468;2023-08-30T05:15:01;8.85;;;5.40;;
22705;SDS011;11520;51.198;4.468;2023-08-30T05:17:28;9.30;;;5.75;;
22705;SDS011;11520;51.198;4.468;2023-08-30T05:19:54;10.73;;;6.18;;
22705;SDS011;11520;51.198;4.468;2023-08-30T05:22:20;11.73;;;6.63;;
22705;SDS011;11520;51.198;4.468;2023-08-30T05:24:45;11.13;;;6.35;;
22705;SDS011;11520;51.198;4.468;2023-08-30T05:27:11;10.40;;;6.03;;
22705;SDS011;11520;51.198;4.468;2023-08-30T05:29:38;12.40;;;7.07;;
22705;SDS011;11520;51.198;4.468;2023-08-30T05:32:03;10.93;;;6.18;;
22705;SDS011;11520;51.198;4.468;2023-08-30T05:34:30;13.93;;;7.18;;
22705;SDS011;11520;51.198;4.468;2023-08-30T05:36:56;14.18;;;7.05;;
22705;SDS011;11520;51.198;4.468;2023-08-30T05:39:21;16.55;;;6.70;;
22705;SDS011;11520;51.198;4.468;2023-08-30T05:41:47;10.98;;;6.65;;
22705;SDS011;11520;51.198;4.468;2023-08-30T05:44:13;11.02;;;6.32;;
22705;SDS011;11520;51.198;4.468;2023-08-30T05:46:38;12.70;;;6.00;;
22705;SDS011;11520;51.198;4.468;2023-08-30T05:49:04;10.38;;;6.10;;
22705;SDS011;11520;51.198;4.468;2023-08-30T05:51:30;10.85;;;6.18;;
22705;SDS011;11520;51.198;4.468;2023-08-30T05:53:55;9.40;;;5.63;;
22705;SDS011;11520;51.198;4.468;2023-08-30T05:56:21;10.63;;;6.28;;
22705;SDS011;11520;51.198;4.468;2023-08-30T05:58:46;10.95;;;7.00;;
22705;SDS011;11520;51.198;4.468;2023-08-30T06:01:13;11.35;;;6.63;;
22705;SDS011;11520;51.198;4.468;2023-08-30T06:03:39;10.63;;;7.40;;
22705;SDS011;11520;51.198;4.468;2023-08-30T06:06:04;12.57;;;7.88;;
22705;SDS011;11520;51.198;4.468;2023-08-30T06:08:30;10.35;;;6.97;;
22705;SDS011;11520;51.198;4.468;2023-08-30T06:10:56;17.00;;;8.38;;
22705;SDS011;11520;51.198;4.468;2023-08-30T06:13:21;11.18;;;7.57;;
22705;SDS011;11520;51.198;4.468;2023-08-30T06:15:53;15.63;;;7.80;;
22705;SDS011;11520;51.198;4.468;2023-08-30T06:18:19;16.40;;;7.80;;
22705;SDS011;11520;51.198;4.468;2023-08-30T06:20:45;14.48;;;8.30;;
22705;SDS011;11520;51.198;4.468;2023-08-30T06:23:10;15.63;;;8.65;;
22705;SDS011;11520;51.198;4.468;2023-08-30T06:25:36;13.77;;;8.30;;
22705;SDS011;11520;51.198;4.468;2023-08-30T06:28:02;18.17;;;9.05;;
22705;SDS011;11520;51.198;4.468;2023-08-30T06:30:28;16.52;;;9.95;;
22705;SDS011;11520;51.198;4.468;2023-08-30T06:32:54;17.40;;;9.57;;
22705;SDS011;11520;51.198;4.468;2023-08-30T06:35:21;18.88;;;10.57;;
22705;SDS011;11520;51.198;4.468;2023-08-30T06:37:47;20.33;;;11.18;;
22705;SDS011;11520;51.198;4.468;2023-08-30T06:40:12;16.25;;;9.65;;
22705;SDS011;11520;51.198;4.468;2023-08-30T06:42:38;17.17;;;9.82;;
22705;SDS011;11520;51.198;4.468;2023-08-30T06:45:04;16.30;;;9.65;;
22705;SDS011;11520;51.198;4.468;2023-08-30T06:47:30;21.33;;;9.65;;
22705;SDS011;11520;51.198;4.468;2023-08-30T06:49:56;17.27;;;8.90;;
22705;SDS011;11520;51.198;4.468;2023-08-30T06:52:22;19.10;;;10.27;;
22705;SDS011;11520;51.198;4.468;2023-08-30T06:54:48;20.88;;;10.07;;
22705;SDS011;11520;51.198;4.468;2023-08-30T06:57:13;17.67;;;9.65;;
22705;SDS011;11520;51.198;4.468;2023-08-30T06:59:39;21.88;;;10.10;;
22705;SDS011;11520;51.198;4.468;2023-08-30T07:02:05;20.60;;;9.65;;
22705;SDS011;11520;51.198;4.468;2023-08-30T07:04:31;19.52;;;10.02;;
22705;SDS011;11520;51.198;4.468;2023-08-30T07:06:56;18.30;;;9.77;;
22705;SDS011;11520;51.198;4.468;2023-08-30T07:09:22;19.77;;;10.25;;
22705;SDS011;11520;51.198;4.468;2023-08-30T07:11:55;20.05;;;9.75;;
22705;SDS011;11520;51.198;4.468;2023-08-30T07:14:20;17.40;;;9.63;;
22705;SDS011;11520;51.198;4.468;2023-08-30T07:16:46;16.80;;;9.13;;
22705;SDS011;11520;51.198;4.468;2023-08-30T07:19:14;16.10;;;8.40;;
22705;SDS011;11520;51.198;4.468;2023-08-30T07:21:40;15.70;;;9.43;;
22705;SDS011;11520;51.198;4.468;2023-08-30T07:24:07;14.98;;;8.27;;
22705;SDS011;11520;51.198;4.468;2023-08-30T07:26:33;17.33;;;8.43;;
22705;SDS011;11520;51.198;4.468;2023-08-30T07:28:59;14.40;;;7.32;;
22705;SDS011;11520;51.198;4.468;2023-08-30T07:31:25;15.00;;;7.90;;
22705;SDS011;11520;51.198;4.468;2023-08-30T07:33:52;14.57;;;7.50;;
22705;SDS011;11520;51.198;4.468;2023-08-30T07:36:17;16.65;;;8.43;;
22705;SDS011;11520;51.198;4.468;2023-08-30T07:38:43;11.93;;;7.22;;
22705;SDS011;11520;51.198;4.468;2023-08-30T07:41:09;13.15;;;7.00;;
22705;SDS011;11520;51.198;4.468;2023-08-30T07:43:35;13.15;;;7.50;;
22705;SDS011;11520;51.198;4.468;2023-08-30T07:46:01;12.85;;;7.40;;
22705;SDS011;11520;51.198;4.468;2023-08-30T07:48:27;12.85;;;6.72;;
22705;SDS011;11520;51.198;4.468;2023-08-30T07:50:53;11.18;;;6.25;;
22705;SDS011;11520;51.198;4.468;2023-08-30T07:53:19;10.10;;;6.65;;
22705;SDS011;11520;51.198;4.468;2023-08-30T07:55:48;12.50;;;6.13;;
22705;SDS011;11520;51.198;4.468;2023-08-30T07:58:15;10.55;;;6.13;;
22705;SDS011;11520;51.198;4.468;2023-08-30T08:00:42;9.98;;;5.45;;
22705;SDS011;11520;51.198;4.468;2023-08-30T08:03:07;7.72;;;5.18;;
22705;SDS011;11520;51.198;4.468;2023-08-30T08:05:35;8.15;;;4.60;;
22705;SDS011;11520;51.198;4.468;2023-08-30T08:08:02;6.15;;;4.32;;
22705;SDS011;11520;51.198;4.468;2023-08-30T08:10:31;6.55;;;4.63;;
22705;SDS011;11520;51.198;4.468;2023-08-30T08:13:00;6.95;;;4.30;;
22705;SDS011;11520;51.198;4.468;2023-08-30T08:15:26;5.50;;;3.90;;
22705;SDS011;11520;51.198;4.468;2023-08-30T08:17:51;6.78;;;4.03;;
22705;SDS011;11520;51.198;4.468;2023-08-30T08:20:23;5.45;;;3.80;;
22705;SDS011;11520;51.198;4.468;2023-08-30T08:22:49;5.90;;;3.60;;
22705;SDS011;11520;51.198;4.468;2023-08-30T08:25:14;6.60;;;3.42;;
22705;SDS011;11520;51.198;4.468;2023-08-30T08:27:43;5.25;;;3.50;;
22705;SDS011;11520;51.198;4.468;2023-08-30T08:30:08;5.88;;;3.42;;
22705;SDS011;11520;51.198;4.468;2023-08-30T08:32:39;5.97;;;3.53;;
22705;SDS011;11520;51.198;4.468;2023-08-30T08:35:05;3.75;;;3.20;;
22705;SDS011;11520;51.198;4.468;2023-08-30T08:37:31;4.90;;;3.08;;
22705;SDS011;11520;51.198;4.468;2023-08-30T08:39:57;3.25;;;2.60;;
22705;SDS011;11520;51.198;4.468;2023-08-30T08:42:30;3.38;;;2.65;;
22705;SDS011;11520;51.198;4.468;2023-08-30T08:44:56;4.45;;;2.70;;
22705;SDS011;11520;51.198;4.468;2023-08-30T08:47:23;2.78;;;2.38;;
22705;SDS011;11520;51.198;4.468;2023-08-30T08:49:49;2.88;;;2.00;;
22705;SDS011;11520;51.198;4.468;2023-08-30T08:52:16;4.50;;;2.80;;
22705;SDS011;11520;51.198;4.468;2023-08-30T08:54:42;5.03;;;2.78;;
22705;SDS011;11520;51.198;4.468;2023-08-30T08:57:08;3.90;;;2.83;;
22705;SDS011;11520;51.198;4.468;2023-08-30T08:59:34;3.33;;;2.58;;
22705;SDS011;11520;51.198;4.468;2023-08-30T09:02:00;2.80;;;2.58;;
22705;SDS011;11520;51.198;4.468;2023-08-30T09:04:26;2.72;;;2.53;;
22705;SDS011;11520;51.198;4.468;2023-08-30T09:06:55;3.83;;;2.97;;
22705;SDS011;11520;51.198;4.468;2023-08-30T09:09:21;5.30;;;2.72;;
22705;SDS011;11520;51.198;4.468;2023-08-30T09:11:48;2.90;;;2.55;;
22705;SDS011;11520;51.198;4.468;2023-08-30T09:14:14;3.28;;;2.83;;
22705;SDS011;11520;51.198;4.468;2023-08-30T09:16:40;10.05;;;3.40;;
22705;SDS011;11520;51.198;4.468;2023-08-30T09:19:06;4.53;;;2.80;;
22705;SDS011;11520;51.198;4.468;2023-08-30T09:21:32;5.65;;;2.63;;
22705;SDS011;11520;51.198;4.468;2023-08-30T09:24:02;4.85;;;3.10;;
22705;SDS011;11520;51.198;4.468;2023-08-30T09:26:30;4.88;;;3.60;;
22705;SDS011;11520;51.198;4.468;2023-08-30T09:29:06;3.72;;;3.30;;
22705;SDS011;11520;51.198;4.468;2023-08-30T09:31:36;3.30;;;3.00;;
22705;SDS011;11520;51.198;4.468;2023-08-30T09:34:04;2.85;;;2.65;;
22705;SDS011;11520;51.198;4.468;2023-08-30T09:36:34;3.25;;;2.95;;
22705;SDS011;11520;51.198;4.468;2023-08-30T09:39:04;11.43;;;3.63;;
22705;SDS011;11520;51.198;4.468;2023-08-30T09:41:34;3.20;;;2.90;;
22705;SDS011;11520;51.198;4.468;2023-08-30T09:44:08;5.13;;;3.83;;
22705;SDS011;11520;51.198;4.468;2023-08-30T09:46:42;5.97;;;4.20;;
22705;SDS011;11520;51.198;4.468;2023-08-30T09:49:09;4.28;;;3.15;;
22705;SDS011;11520;51.198;4.468;2023-08-30T09:51:36;5.10;;;3.10;;
22705;SDS011;11520;51.198;4.468;2023-08-30T09:54:06;4.85;;;2.85;;
22705;SDS011;11520;51.198;4.468;2023-08-30T09:56:41;6.35;;;3.70;;
22705;SDS011;11520;51.198;4.468;2023-08-30T09:59:09;7.47;;;3.83;;
22705;SDS011;11520;51.198;4.468;2023-08-30T10:01:36;4.00;;;3.58;;
22705;SDS011;11520;51.198;4.468;2023-08-30T10:04:02;4.18;;;3.22;;
22705;SDS011;11520;51.198;4.468;2023-08-30T10:06:29;6.10;;;2.67;;
22705;SDS011;11520;51.198;4.468;2023-08-30T10:08:55;3.58;;;2.22;;
22705;SDS011;11520;51.198;4.468;2023-08-30T10:11:24;6.75;;;2.10;;
22705;SDS011;11520;51.198;4.468;2023-08-30T10:13:51;6.82;;;2.72;;
22705;SDS011;11520;51.198;4.468;2023-08-30T10:16:20;4.30;;;2.30;;
22705;SDS011;11520;51.198;4.468;2023-08-30T10:18:53;5.30;;;2.63;;
22705;SDS011;11520;51.198;4.468;2023-08-30T10:21:23;6.72;;;2.13;;
22705;SDS011;11520;51.198;4.468;2023-08-30T10:23:49;4.93;;;2.15;;
22705;SDS011;11520;51.198;4.468;2023-08-30T10:26:16;4.82;;;2.13;;
22705;SDS011;11520;51.198;4.468;2023-08-30T10:28:43;4.43;;;2.00;;
22705;SDS011;11520;51.198;4.468;2023-08-30T10:31:10;4.63;;;1.58;;
22705;SDS011;11520;51.198;4.468;2023-08-30T10:34:11;3.65;;;1.83;;
22705;SDS011;11520;51.198;4.468;2023-08-30T10:36:36;6.00;;;1.92;;
22705;SDS011;11520;51.198;4.468;2023-08-30T10:39:02;6.15;;;2.15;;
22705;SDS011;11520;51.198;4.468;2023-08-30T10:41:55;4.55;;;1.88;;
22705;SDS011;11520;51.198;4.468;2023-08-30T10:46:52;7.00;;;2.15;;
22705;SDS011;11520;51.198;4.468;2023-08-30T10:49:19;6.90;;;2.03;;
22705;SDS011;11520;51.198;4.468;2023-08-30T10:51:45;7.63;;;2.35;;
22705;SDS011;11520;51.198;4.468;2023-08-30T10:54:19;5.97;;;1.75;;
22705;SDS011;11520;51.198;4.468;2023-08-30T10:56:46;5.28;;;2.00;;
22705;SDS011;11520;51.198;4.468;2023-08-30T10:59:18;5.83;;;1.87;;
22705;SDS011;11520;51.198;4.468;2023-08-30T11:01:45;3.78;;;1.38;;
22705;SDS011;11520;51.198;4.468;2023-08-30T11:04:12;9.43;;;1.85;;
22705;SDS011;11520;51.198;4.468;2023-08-30T11:06:40;4.68;;;1.50;;
22705;SDS011;11520;51.198;4.468;2023-08-30T11:09:08;4.93;;;1.50;;
22705;SDS011;11520;51.198;4.468;2023-08-30T11:11:39;4.32;;;1.63;;
22705;SDS011;11520;51.198;4.468;2023-08-30T11:14:07;7.97;;;2.03;;
22705;SDS011;11520;51.198;4.468;2023-08-30T11:16:37;9.13;;;2.67;;
22705;SDS011;11520;51.198;4.468;2023-08-30T11:19:03;8.27;;;1.90;;
22705;SDS011;11520;51.198;4.468;2023-08-30T11:21:36;6.85;;;1.80;;
22705;SDS011;11520;51.198;4.468;2023-08-30T11:24:03;4.50;;;1.60;;
22705;SDS011;11520;51.198;4.468;2023-08-30T11:26:30;7.07;;;1.75;;
22705;SDS011;11520;51.198;4.468;2023-08-30T11:28:56;5.20;;;1.60;;
22705;SDS011;11520;51.198;4.468;2023-08-30T11:31:22;3.55;;;1.70;;
22705;SDS011;11520;51.198;4.468;2023-08-30T11:33:52;5.57;;;1.70;;
22705;SDS011;11520;51.198;4.468;2023-08-30T11:36:25;6.65;;;1.30;;
22705;SDS011;11520;51.198;4.468;2023-08-30T11:38:52;5.93;;;1.70;;
22705;SDS011;11520;51.198;4.468;2023-08-30T11:41:22;5.40;;;1.50;;
22705;SDS011;11520;51.198;4.468;2023-08-30T11:43:51;3.08;;;1.55;;
22705;SDS011;11520;51.198;4.468;2023-08-30T11:46:20;5.53;;;1.30;;
22705;SDS011;11520;51.198;4.468;2023-08-30T11:48:47;5.05;;;1.70;;
22705;SDS011;11520;51.198;4.468;2023-08-30T11:53:41;5.65;;;1.52;;
22705;SDS011;11520;51.198;4.468;2023-08-30T11:56:16;3.70;;;1.23;;
22705;SDS011;11520;51.198;4.468;2023-08-30T11:58:42;4.47;;;1.40;;
22705;SDS011;11520;51.198;4.468;2023-08-30T12:01:08;4.18;;;1.33;;
22705;SDS011;11520;51.198;4.468;2023-08-30T12:03:34;5.10;;;1.60;;
22705;SDS011;11520;51.198;4.468;2023-08-30T12:06:01;7.78;;;1.65;;
22705;SDS011;11520;51.198;4.468;2023-08-30T12:08:28;5.97;;;1.40;;
22705;SDS011;11520;51.198;4.468;2023-08-30T12:10:55;6.03;;;1.23;;
22705;SDS011;11520;51.198;4.468;2023-08-30T12:13:43;4.10;;;1.63;;
22705;SDS011;11520;51.198;4.468;2023-08-30T12:16:08;5.75;;;1.92;;
22705;SDS011;11520;51.198;4.468;2023-08-30T12:18:41;10.65;;;2.03;;
22705;SDS011;11520;51.198;4.468;2023-08-30T12:21:07;4.53;;;1.70;;
22705;SDS011;11520;51.198;4.468;2023-08-30T12:23:33;4.60;;;1.30;;
22705;SDS011;11520;51.198;4.468;2023-08-30T12:26:08;5.70;;;1.55;;
22705;SDS011;11520;51.198;4.468;2023-08-30T12:28:36;5.80;;;1.77;;
22705;SDS011;11520;51.198;4.468;2023-08-30T12:31:06;5.60;;;1.30;;
22705;SDS011;11520;51.198;4.468;2023-08-30T12:33:33;8.88;;;2.17;;
22705;SDS011;11520;51.198;4.468;2023-08-30T12:36:00;7.15;;;1.65;;
22705;SDS011;11520;51.198;4.468;2023-08-30T12:38:26;9.10;;;2.17;;
22705;SDS011;11520;51.198;4.468;2023-08-30T12:40:53;4.80;;;1.30;;
22705;SDS011;11520;51.198;4.468;2023-08-30T12:43:19;5.10;;;1.65;;
22705;SDS011;11520;51.198;4.468;2023-08-30T12:45:46;4.95;;;1.20;;
22705;SDS011;11520;51.198;4.468;2023-08-30T12:48:13;5.65;;;1.05;;
22705;SDS011;11520;51.198;4.468;2023-08-30T12:50:41;3.33;;;0.88;;
22705;SDS011;11520;51.198;4.468;2023-08-30T12:53:13;4.40;;;1.23;;
22705;SDS011;11520;51.198;4.468;2023-08-30T12:55:41;3.25;;;0.98;;
22705;SDS011;11520;51.198;4.468;2023-08-30T12:58:07;3.08;;;1.40;;
22705;SDS011;11520;51.198;4.468;2023-08-30T13:00:33;6.28;;;1.13;;
22705;SDS011;11520;51.198;4.468;2023-08-30T13:03:00;4.93;;;1.42;;
22705;SDS011;11520;51.198;4.468;2023-08-30T13:05:26;4.80;;;1.30;;
22705;SDS011;11520;51.198;4.468;2023-08-30T13:07:52;5.55;;;1.20;;
22705;SDS011;11520;51.198;4.468;2023-08-30T13:10:17;6.70;;;1.65;;
22705;SDS011;11520;51.198;4.468;2023-08-30T13:12:43;8.57;;;1.67;;
22705;SDS011;11520;51.198;4.468;2023-08-30T13:15:09;6.15;;;1.45;;
22705;SDS011;11520;51.198;4.468;2023-08-30T13:17:35;7.47;;;1.30;;
22705;SDS011;11520;51.198;4.468;2023-08-30T13:20:01;3.47;;;1.40;;
22705;SDS011;11520;51.198;4.468;2023-08-30T13:22:29;3.85;;;1.17;;
22705;SDS011;11520;51.198;4.468;2023-08-30T13:24:55;9.32;;;1.73;;
22705;SDS011;11520;51.198;4.468;2023-08-30T13:27:21;4.15;;;1.02;;
22705;SDS011;11520;51.198;4.468;2023-08-30T13:29:47;4.95;;;1.15;;
22705;SDS011;11520;51.198;4.468;2023-08-30T13:32:13;3.20;;;1.13;;
22705;SDS011;11520;51.198;4.468;2023-08-30T13:34:38;4.63;;;1.00;;
22705;SDS011;11520;51.198;4.468;2023-08-30T13:37:04;7.65;;;1.20;;
22705;SDS011;11520;51.198;4.468;2023-08-30T13:39:30;2.15;;;0.70;;
22705;SDS011;11520;51.198;4.468;2023-08-30T13:41:56;5.80;;;1.50;;
22705;SDS011;11520;51.198;4.468;2023-08-30T13:44:21;3.20;;;0.88;;
22705;SDS011;11520;51.198;4.468;2023-08-30T13:46:47;9.05;;;1.23;;
22705;SDS011;11520;51.198;4.468;2023-08-30T13:49:13;4.47;;;1.13;;
22705;SDS011;11520;51.198;4.468;2023-08-30T13:51:39;3.92;;;1.13;;
22705;SDS011;11520;51.198;4.468;2023-08-30T13:54:05;2.03;;;0.70;;
22705;SDS011;11520;51.198;4.468;2023-08-30T13:56:31;1.92;;;0.75;;
22705;SDS011;11520;51.198;4.468;2023-08-30T13:58:57;2.75;;;1.10;;
22705;SDS011;11520;51.198;4.468;2023-08-30T14:01:23;4.30;;;0.80;;
22705;SDS011;11520;51.198;4.468;2023-08-30T14:03:48;2.40;;;0.68;;
22705;SDS011;11520;51.198;4.468;2023-08-30T14:06:14;3.08;;;0.60;;
22705;SDS011;11520;51.198;4.468;2023-08-30T14:08:40;1.88;;;0.75;;
22705;SDS011;11520;51.198;4.468;2023-08-30T14:11:06;2.58;;;0.60;;
22705;SDS011;11520;51.198;4.468;2023-08-30T14:13:32;8.05;;;1.00;;
22705;SDS011;11520;51.198;4.468;2023-08-30T14:16:01;2.58;;;0.68;;
22705;SDS011;11520;51.198;4.468;2023-08-30T14:18:30;3.65;;;0.70;;
22705;SDS011;11520;51.198;4.468;2023-08-30T14:20:57;4.57;;;0.77;;
22705;SDS011;11520;51.198;4.468;2023-08-30T14:23:24;4.70;;;0.60;;
22705;SDS011;11520;51.198;4.468;2023-08-30T14:25:58;4.25;;;0.65;;
22705;SDS011;11520;51.198;4.468;2023-08-30T14:28:34;5.38;;;0.80;;
22705;SDS011;11520;51.198;4.468;2023-08-30T14:31:01;5.93;;;0.90;;
22705;SDS011;11520;51.198;4.468;2023-08-30T14:33:27;3.40;;;0.82;;
22705;SDS011;11520;51.198;4.468;2023-08-30T14:35:53;4.85;;;1.20;;
22705;SDS011;11520;51.198;4.468;2023-08-30T14:38:19;1.77;;;0.60;;
22705;SDS011;11520;51.198;4.468;2023-08-30T14:40:55;2.45;;;0.77;;
22705;SDS011;11520;51.198;4.468;2023-08-30T14:43:22;3.20;;;1.00;;
22705;SDS011;11520;51.198;4.468;2023-08-30T14:45:48;3.50;;;0.82;;
22705;SDS011;11520;51.198;4.468;2023-08-30T14:48:13;5.10;;;0.93;;
22705;SDS011;11520;51.198;4.468;2023-08-30T14:50:39;2.53;;;0.88;;
22705;SDS011;11520;51.198;4.468;2023-08-30T14:53:05;5.05;;;0.75;;